createdAt,value
2022-08-17T00:02:15.312Z,5.15
2022-08-17T00:04:52.473Z,5.10
2022-08-17T00:07:22.222Z,5.30
2022-08-17T00:09:48.784Z,5.25
2022-08-17T00:12:40.764Z,5.13
2022-08-17T00:15:02.509Z,5.30
2022-08-17T00:17:32.104Z,5.47
2022-08-17T00:20:00.215Z,5.30
2022-08-17T00:22:33.253Z,5.80
2022-08-17T00:25:02.893Z,4.97
2022-08-17T00:27:29.331Z,5.30
2022-08-17T00:29:55.795Z,5.20
2022-08-17T00:33:12.120Z,5.68
2022-08-17T00:35:11.235Z,5.45
2022-08-17T00:37:37.718Z,5.30
2022-08-17T00:40:05.030Z,5.47
2022-08-17T00:42:31.873Z,4.97
2022-08-17T00:44:59.223Z,6.10
2022-08-17T00:47:26.460Z,5.55
2022-08-17T00:49:53.150Z,5.97
2022-08-17T00:52:23.539Z,5.93
2022-08-17T00:54:53.901Z,5.57
2022-08-17T00:57:33.130Z,5.63
2022-08-17T01:00:08.343Z,5.60
2022-08-17T01:02:42.764Z,5.88
2022-08-17T01:05:19.050Z,6.18
2022-08-17T01:07:47.678Z,5.50
2022-08-17T01:11:00.038Z,5.47
2022-08-17T01:13:03.838Z,6.97
2022-08-17T01:15:34.832Z,7.30
2022-08-17T01:18:01.893Z,6.47
2022-08-17T01:20:28.440Z,6.83
2022-08-17T01:22:56.391Z,6.63
2022-08-17T01:25:22.931Z,5.78
2022-08-17T01:27:49.894Z,5.32
2022-08-17T01:30:58.377Z,5.57
2022-08-17T01:33:04.329Z,5.90
2022-08-17T01:35:30.919Z,5.75
2022-08-17T01:37:57.438Z,5.43
2022-08-17T01:40:39.860Z,5.50
2022-08-17T01:43:16.106Z,5.50
2022-08-17T01:45:49.331Z,5.27
2022-08-17T01:48:32.673Z,5.30
2022-08-17T01:50:59.523Z,5.70
2022-08-17T01:53:34.866Z,5.40
2022-08-17T01:56:08.238Z,5.50
2022-08-17T01:58:36.052Z,5.20
2022-08-17T02:01:02.846Z,5.22
2022-08-17T02:03:30.256Z,5.35
2022-08-17T02:05:56.910Z,5.38
2022-08-17T02:08:38.653Z,6.03
2022-08-17T02:11:12.089Z,5.47
2022-08-17T02:13:39.021Z,5.85
2022-08-17T02:16:06.000Z,5.88
2022-08-17T02:18:35.797Z,5.65
2022-08-17T02:21:02.490Z,5.35
2022-08-17T02:23:32.364Z,5.67
2022-08-17T02:26:00.561Z,5.40
2022-08-17T02:28:28.626Z,5.78
2022-08-17T02:31:01.843Z,5.45
2022-08-17T02:33:42.030Z,5.90
2022-08-17T02:36:12.344Z,5.23
2022-08-17T02:38:40.717Z,5.40
2022-08-17T02:41:07.639Z,6.07
2022-08-17T02:43:36.712Z,5.70
2022-08-17T02:46:03.325Z,5.72
2022-08-17T02:48:31.063Z,5.13
2022-08-17T02:50:58.280Z,5.63
2022-08-17T02:53:25.624Z,6.15
2022-08-17T02:55:52.706Z,5.80
2022-08-17T02:58:34.404Z,6.05
2022-08-17T03:01:06.338Z,5.90
2022-08-17T03:03:33.478Z,5.32
2022-08-17T03:06:00.510Z,5.88
2022-08-17T03:08:27.210Z,6.00
2022-08-17T03:10:53.934Z,5.43
2022-08-17T03:13:20.689Z,5.40
2022-08-17T03:15:48.946Z,5.85
2022-08-17T03:18:25.409Z,6.40
2022-08-17T03:20:59.199Z,5.65
2022-08-17T03:23:27.525Z,5.72
2022-08-17T03:25:56.795Z,6.03
2022-08-17T03:28:23.857Z,6.10
2022-08-17T03:30:51.549Z,5.70
2022-08-17T03:33:19.200Z,5.57
2022-08-17T03:35:46.481Z,5.90
2022-08-17T03:38:15.826Z,5.40
2022-08-17T03:40:58.156Z,6.05
2022-08-17T03:43:29.480Z,6.10
2022-08-17T03:46:33.993Z,5.57
2022-08-17T03:49:22.859Z,6.20
2022-08-17T03:52:07.773Z,5.60
2022-08-17T03:54:52.735Z,5.95
2022-08-17T03:57:19.534Z,5.90
2022-08-17T03:59:46.284Z,5.95
2022-08-17T04:02:24.264Z,5.78
2022-08-17T04:04:52.105Z,5.87
2022-08-17T04:07:20.831Z,6.00
2022-08-17T04:09:47.717Z,6.30
2022-08-17T04:12:16.496Z,5.93
2022-08-17T04:14:53.187Z,6.30
2022-08-17T04:17:26.511Z,5.50
2022-08-17T04:19:55.862Z,5.90
2022-08-17T04:22:32.790Z,5.95
2022-08-17T04:25:18.258Z,6.25
2022-08-17T04:27:48.686Z,6.25
2022-08-17T04:30:15.547Z,5.70
2022-08-17T04:33:08.751Z,6.18
2022-08-17T04:35:44.930Z,5.90
2022-08-17T04:38:14.579Z,5.70
2022-08-17T04:40:59.663Z,5.55
2022-08-17T04:43:30.991Z,6.07
2022-08-17T04:46:09.627Z,6.40
2022-08-17T04:48:42.664Z,5.97
2022-08-17T04:51:21.942Z,6.03
2022-08-17T04:53:54.539Z,5.97
2022-08-17T04:56:22.669Z,5.70
2022-08-17T04:58:51.932Z,5.82
2022-08-17T05:01:23.129Z,5.88
2022-08-17T05:03:56.162Z,5.13
2022-08-17T05:06:23.587Z,6.03
2022-08-17T05:08:50.095Z,5.73
2022-08-17T05:11:16.791Z,6.40
2022-08-17T05:13:43.559Z,6.82
2022-08-17T05:16:10.651Z,6.20
2022-08-17T05:18:38.716Z,5.93
2022-08-17T05:21:06.620Z,6.23
2022-08-17T05:23:41.734Z,6.40
2022-08-17T05:26:23.154Z,5.78
2022-08-17T05:28:53.522Z,5.93
2022-08-17T05:31:21.021Z,5.20
2022-08-17T05:33:47.746Z,5.40
2022-08-17T05:36:42.721Z,5.07
2022-08-17T05:39:03.041Z,6.60
2022-08-17T05:41:29.588Z,22.70
2022-08-17T05:43:56.633Z,21.85
2022-08-17T05:46:28.706Z,9.70
2022-08-17T05:49:09.840Z,5.45
2022-08-17T05:52:10.012Z,4.70
2022-08-17T05:54:51.693Z,4.45
2022-08-17T05:57:43.521Z,5.00
2022-08-17T06:00:42.005Z,4.60
2022-08-17T06:03:27.299Z,4.32
2022-08-17T06:06:15.415Z,4.45
2022-08-17T06:08:51.689Z,4.25
2022-08-17T06:11:44.492Z,4.57
2022-08-17T06:14:38.555Z,7.33
2022-08-17T06:17:11.399Z,7.28
2022-08-17T06:19:37.788Z,6.07
2022-08-17T06:22:06.167Z,5.50
2022-08-17T06:25:01.159Z,5.03
2022-08-17T06:28:04.762Z,4.73
2022-08-17T06:30:58.487Z,4.80
2022-08-17T06:33:35.456Z,4.78
2022-08-17T06:36:26.362Z,5.10
2022-08-17T06:39:04.822Z,6.32
2022-08-17T06:41:53.696Z,5.77
2022-08-17T06:44:50.234Z,5.15
2022-08-17T06:47:29.287Z,5.30
2022-08-17T06:50:15.435Z,5.22
2022-08-17T06:52:56.356Z,4.82
2022-08-17T06:55:37.831Z,4.60
2022-08-17T06:58:15.849Z,4.70
2022-08-17T07:00:47.233Z,4.55
2022-08-17T07:03:20.875Z,4.57
2022-08-17T07:06:06.368Z,4.57
2022-08-17T07:08:51.193Z,4.80
2022-08-17T07:11:26.026Z,6.65
2022-08-17T07:14:00.809Z,4.55
2022-08-17T07:16:41.197Z,5.43
2022-08-17T07:19:11.028Z,4.78
2022-08-17T07:21:40.861Z,5.03
2022-08-17T07:24:29.176Z,4.75
2022-08-17T07:27:14.289Z,4.78
2022-08-17T07:29:46.309Z,4.60
2022-08-17T07:32:18.448Z,4.55
2022-08-17T07:35:04.556Z,4.50
2022-08-17T07:37:33.299Z,4.20
2022-08-17T07:40:15.832Z,4.22
2022-08-17T07:43:00.193Z,4.43
2022-08-17T07:45:45.487Z,4.50
2022-08-17T07:48:21.904Z,4.30
2022-08-17T07:50:50.815Z,4.00
2022-08-17T07:53:20.952Z,4.50
2022-08-17T07:55:47.742Z,4.40
2022-08-17T07:58:20.044Z,4.50
2022-08-17T08:01:02.045Z,4.40
2022-08-17T08:03:32.019Z,4.30
2022-08-17T08:06:01.982Z,4.65
2022-08-17T08:08:31.009Z,4.10
2022-08-17T08:11:05.437Z,3.83
2022-08-17T08:13:33.057Z,4.20
2022-08-17T08:16:24.155Z,9.25
2022-08-17T08:18:56.934Z,8.98
2022-08-17T08:21:55.154Z,4.50
2022-08-17T08:24:30.778Z,4.80
2022-08-17T08:27:31.345Z,6.10
2022-08-17T08:30:09.009Z,15.43
2022-08-17T08:33:27.028Z,8.60
2022-08-17T08:37:14.145Z,9.20
2022-08-17T08:39:19.318Z,4.22
2022-08-17T08:42:10.219Z,4.87
2022-08-17T08:45:00.113Z,4.95
2022-08-17T08:47:53.550Z,4.72
2022-08-17T08:50:48.821Z,4.57
2022-08-17T08:53:21.836Z,4.90
2022-08-17T08:55:54.795Z,4.77
2022-08-17T08:58:43.555Z,4.80
2022-08-17T09:01:47.327Z,5.10
2022-08-17T09:04:25.183Z,5.40
2022-08-17T09:07:07.285Z,5.50
2022-08-17T09:09:59.013Z,5.50
2022-08-17T09:12:48.636Z,4.93
2022-08-17T09:15:25.587Z,5.88
2022-08-17T09:18:30.407Z,5.70
2022-08-17T09:20:55.752Z,5.30
2022-08-17T09:23:43.740Z,5.37
2022-08-17T09:26:21.002Z,5.50
2022-08-17T09:28:51.028Z,5.57
2022-08-17T09:31:47.054Z,5.10
2022-08-17T09:34:19.747Z,5.47
2022-08-17T09:37:03.800Z,5.40
2022-08-17T09:39:38.905Z,5.57
2022-08-17T09:42:31.601Z,5.38
2022-08-17T09:45:02.752Z,5.63
2022-08-17T09:47:42.082Z,6.10
2022-08-17T09:50:20.130Z,6.10
2022-08-17T09:53:07.591Z,10.27
2022-08-17T09:56:15.153Z,9.73
2022-08-17T09:59:08.948Z,6.72
2022-08-17T10:01:45.963Z,6.55
2022-08-17T10:04:29.868Z,6.10
2022-08-17T10:07:52.581Z,5.97
2022-08-17T10:10:25.680Z,5.70
2022-08-17T10:13:03.971Z,6.00
2022-08-17T10:15:53.679Z,5.68
2022-08-17T10:18:46.134Z,5.50
2022-08-17T10:21:38.269Z,5.95
2022-08-17T10:25:23.089Z,6.03
2022-08-17T10:27:54.335Z,9.23
2022-08-17T10:30:26.750Z,5.70
2022-08-17T10:32:59.207Z,5.53
2022-08-17T10:35:50.471Z,5.22
2022-08-17T10:38:32.008Z,5.30
2022-08-17T10:41:16.857Z,5.40
2022-08-17T10:44:40.516Z,5.25
2022-08-17T10:47:18.097Z,5.40
2022-08-17T10:49:53.724Z,5.18
2022-08-17T10:52:20.402Z,6.00
2022-08-17T10:54:51.333Z,8.05
2022-08-17T10:57:40.877Z,5.95
2022-08-17T11:00:15.167Z,5.73
2022-08-17T11:02:51.792Z,5.15
2022-08-17T11:05:18.309Z,5.20
2022-08-17T11:07:59.772Z,6.05
2022-08-17T11:10:52.129Z,5.60
2022-08-17T11:13:44.784Z,5.90
2022-08-17T11:16:47.863Z,5.60
2022-08-17T11:19:41.059Z,5.40
2022-08-17T11:22:29.965Z,5.30
2022-08-17T11:25:15.033Z,5.53
2022-08-17T11:27:43.945Z,5.43
2022-08-17T11:30:12.086Z,5.38
2022-08-17T11:32:52.897Z,5.25
2022-08-17T11:35:21.309Z,5.03
2022-08-17T11:37:58.961Z,5.30
2022-08-17T11:40:38.541Z,5.10
2022-08-17T11:43:23.475Z,5.35
2022-08-17T11:46:14.675Z,5.22
2022-08-17T11:49:05.909Z,4.93
2022-08-17T11:52:05.160Z,5.40
2022-08-17T11:54:42.852Z,4.83
2022-08-17T11:57:41.791Z,4.88
2022-08-17T12:01:00.843Z,4.88
2022-08-17T12:03:39.139Z,4.85
2022-08-17T12:06:17.496Z,4.82
2022-08-17T12:08:51.606Z,4.87
2022-08-17T12:12:10.988Z,5.20
2022-08-17T12:14:51.651Z,4.50
2022-08-17T12:17:40.576Z,4.20
2022-08-17T12:20:21.403Z,3.80
2022-08-17T12:23:01.129Z,3.93
2022-08-17T12:25:38.991Z,4.00
2022-08-17T12:28:20.636Z,4.00
2022-08-17T12:30:52.173Z,3.80
2022-08-17T12:33:25.740Z,4.15
2022-08-17T12:36:00.621Z,3.80
2022-08-17T12:38:32.962Z,4.28
2022-08-17T12:41:21.482Z,4.20
2022-08-17T12:43:58.574Z,3.70
2022-08-17T12:46:25.008Z,3.97
2022-08-17T12:48:58.788Z,3.90
2022-08-17T12:51:28.802Z,3.63
2022-08-17T12:53:55.548Z,4.00
2022-08-17T12:56:21.991Z,3.63
2022-08-17T12:58:53.982Z,3.70
2022-08-17T13:01:21.069Z,3.63
2022-08-17T13:03:53.479Z,3.92
2022-08-17T13:06:36.094Z,3.80
2022-08-17T13:09:40.415Z,3.67
2022-08-17T13:12:08.224Z,4.15
2022-08-17T13:14:35.280Z,4.53
2022-08-17T13:17:08.584Z,4.63
2022-08-17T13:19:48.476Z,4.10
2022-08-17T13:22:15.087Z,4.30
2022-08-17T13:24:53.054Z,4.28
2022-08-17T13:27:21.609Z,4.00
2022-08-17T13:29:53.173Z,3.90
2022-08-17T13:32:34.079Z,4.07
2022-08-17T13:35:14.139Z,3.83
2022-08-17T13:37:57.692Z,3.92
2022-08-17T13:40:32.135Z,4.23
2022-08-17T13:42:59.059Z,4.00
2022-08-17T13:45:35.285Z,4.00
2022-08-17T13:48:08.511Z,3.95
2022-08-17T13:51:05.178Z,3.60
2022-08-17T13:53:37.317Z,3.83
2022-08-17T13:56:37.000Z,4.05
2022-08-17T13:59:07.985Z,4.03
2022-08-17T14:01:34.640Z,4.28
2022-08-17T14:04:04.751Z,4.10
2022-08-17T14:06:52.920Z,4.03
2022-08-17T14:09:24.015Z,3.92
2022-08-17T14:11:51.777Z,4.15
2022-08-17T14:14:18.638Z,3.65
2022-08-17T14:16:45.264Z,4.15
2022-08-17T14:19:13.412Z,3.50
2022-08-17T14:21:42.868Z,3.78
2022-08-17T14:24:16.903Z,4.07
2022-08-17T14:26:44.850Z,3.90
2022-08-17T14:29:12.683Z,4.00
2022-08-17T14:31:42.128Z,4.00
2022-08-17T14:34:12.545Z,3.80
2022-08-17T14:36:41.831Z,3.47
2022-08-17T14:39:15.680Z,3.90
2022-08-17T14:41:42.676Z,3.88
2022-08-17T14:44:13.123Z,3.40
2022-08-17T14:46:41.187Z,3.65
2022-08-17T14:49:10.139Z,3.58
2022-08-17T14:51:44.191Z,4.00
2022-08-17T14:54:33.353Z,3.50
2022-08-17T14:57:04.625Z,3.83
2022-08-17T14:59:46.812Z,3.50
2022-08-17T15:02:13.595Z,3.20
2022-08-17T15:04:45.367Z,3.47
2022-08-17T15:07:12.307Z,3.40
2022-08-17T15:09:39.021Z,3.30
2022-08-17T15:12:06.643Z,3.45
2022-08-17T15:14:35.493Z,3.60
2022-08-17T15:17:05.589Z,3.17
2022-08-17T15:19:32.093Z,3.35
2022-08-17T15:21:58.646Z,3.30
2022-08-17T15:24:25.089Z,3.45
2022-08-17T15:26:51.571Z,3.10
2022-08-17T15:29:18.068Z,2.80
2022-08-17T15:31:44.626Z,3.15
2022-08-17T15:34:11.165Z,3.30
2022-08-17T15:36:37.766Z,3.40
2022-08-17T15:39:07.850Z,3.28
2022-08-17T15:41:34.584Z,3.67
2022-08-17T15:44:01.097Z,3.22
2022-08-17T15:46:27.609Z,3.20
2022-08-17T15:48:58.223Z,3.78
2022-08-17T15:51:31.673Z,3.50
2022-08-17T15:54:04.393Z,3.50
2022-08-17T15:56:46.075Z,3.40
2022-08-17T15:59:12.545Z,3.60
2022-08-17T16:03:06.184Z,3.83
2022-08-17T16:04:28.426Z,3.85
2022-08-17T16:06:58.069Z,4.78
2022-08-17T16:09:24.540Z,4.30
2022-08-17T16:11:53.678Z,3.70
2022-08-17T16:14:22.380Z,4.00
2022-08-17T16:16:50.497Z,4.00
2022-08-17T16:19:16.979Z,3.70
2022-08-17T16:21:43.511Z,3.80
2022-08-17T16:24:12.885Z,3.57
2022-08-17T16:26:40.571Z,4.07
2022-08-17T16:29:08.458Z,4.65
2022-08-17T16:31:37.481Z,3.80
2022-08-17T16:34:17.671Z,3.58
2022-08-17T16:36:54.978Z,3.90
2022-08-17T16:39:25.385Z,3.50
2022-08-17T16:41:51.842Z,3.90
2022-08-17T16:44:21.254Z,3.80
2022-08-17T16:46:48.672Z,4.10
2022-08-17T16:49:29.648Z,3.80
2022-08-17T16:52:03.910Z,4.20
2022-08-17T16:54:30.626Z,3.63
2022-08-17T16:56:57.202Z,3.90
2022-08-17T16:59:39.411Z,4.25
2022-08-17T17:02:12.349Z,3.80
2022-08-17T17:04:51.611Z,3.85
2022-08-17T17:07:20.661Z,3.83
2022-08-17T17:09:52.612Z,3.90
2022-08-17T17:12:19.194Z,3.80
2022-08-17T17:15:01.655Z,3.90
2022-08-17T17:17:37.462Z,3.53
2022-08-17T17:20:16.014Z,3.80
2022-08-17T17:23:00.389Z,3.65
2022-08-17T17:25:36.494Z,3.63
2022-08-17T17:28:10.853Z,3.83
2022-08-17T17:30:49.355Z,3.15
2022-08-17T17:33:23.571Z,3.30
2022-08-17T17:36:08.065Z,3.80
2022-08-17T17:38:42.914Z,3.33
2022-08-17T17:41:25.323Z,3.67
2022-08-17T17:44:01.879Z,3.60
2022-08-17T17:46:37.966Z,3.45
2022-08-17T17:49:05.954Z,3.50
2022-08-17T17:52:07.716Z,4.18
2022-08-17T17:54:33.650Z,3.87
2022-08-17T17:57:07.130Z,3.83
2022-08-17T18:00:15.020Z,3.53
2022-08-17T18:02:53.193Z,4.00
2022-08-17T18:05:31.934Z,3.80
2022-08-17T18:08:32.200Z,3.70
2022-08-17T18:11:07.867Z,3.67
2022-08-17T18:13:56.263Z,14.57
2022-08-17T18:16:23.360Z,5.20
2022-08-17T18:18:52.407Z,3.80
2022-08-17T18:21:27.470Z,3.80
2022-08-17T18:23:59.555Z,3.75
2022-08-17T18:26:55.324Z,3.70
2022-08-17T18:29:27.532Z,3.80
2022-08-17T18:32:17.916Z,3.97
2022-08-17T18:34:48.601Z,3.90
2022-08-17T18:37:31.802Z,3.85
2022-08-17T18:39:58.584Z,4.05
2022-08-17T18:42:27.974Z,4.10
2022-08-17T18:44:55.663Z,4.00
2022-08-17T18:47:28.744Z,4.00
2022-08-17T18:49:58.768Z,3.83
2022-08-17T18:52:32.720Z,4.00
2022-08-17T18:55:20.665Z,4.03
2022-08-17T18:58:12.604Z,3.97
2022-08-17T19:00:42.529Z,3.80
2022-08-17T19:03:18.029Z,4.50
2022-08-17T19:05:54.871Z,4.00
2022-08-17T19:08:32.867Z,4.22
2022-08-17T19:11:10.094Z,3.90
2022-08-17T19:13:41.481Z,4.00
2022-08-17T19:16:12.300Z,3.80
2022-08-17T19:18:51.997Z,4.13
2022-08-17T19:21:23.988Z,4.20
2022-08-17T19:23:53.783Z,7.32
2022-08-17T19:26:54.283Z,4.40
2022-08-17T19:29:34.631Z,9.48
2022-08-17T19:32:01.599Z,4.60
2022-08-17T19:34:33.930Z,4.38
2022-08-17T19:37:08.734Z,4.40
2022-08-17T19:40:02.815Z,4.33
2022-08-17T19:42:49.641Z,4.57
2022-08-17T19:45:25.863Z,4.20
2022-08-17T19:48:12.387Z,4.03
2022-08-17T19:50:57.619Z,4.45
2022-08-17T19:54:03.728Z,4.60
2022-08-17T19:56:43.499Z,4.65
2022-08-17T19:59:48.645Z,4.57
2022-08-17T20:02:37.644Z,4.78
2022-08-17T20:05:19.879Z,4.80
2022-08-17T20:07:51.396Z,5.23
2022-08-17T20:10:38.233Z,4.95
2022-08-17T20:13:11.157Z,4.50
2022-08-17T20:15:42.439Z,4.82
2022-08-17T20:18:47.473Z,4.70
2022-08-17T20:21:20.210Z,4.60
2022-08-17T20:23:56.187Z,4.75
2022-08-17T20:26:28.324Z,6.10
2022-08-17T20:29:08.938Z,5.53
2022-08-17T20:31:51.791Z,5.15
2022-08-17T20:34:31.050Z,4.70
2022-08-17T20:37:04.226Z,5.32
2022-08-17T20:39:38.649Z,4.70
2022-08-17T20:42:29.967Z,4.53
2022-08-17T20:45:05.348Z,5.00
2022-08-17T20:47:55.141Z,4.70
2022-08-17T20:50:37.800Z,4.60
2022-08-17T20:53:08.539Z,5.10
2022-08-17T20:55:51.990Z,4.78
2022-08-17T20:58:25.234Z,4.93
2022-08-17T21:00:57.455Z,5.00
2022-08-17T21:03:24.083Z,4.78
2022-08-17T21:06:14.416Z,5.18
2022-08-17T21:09:13.046Z,5.00
2022-08-17T21:11:56.989Z,15.48
2022-08-17T21:14:40.997Z,5.57
2022-08-17T21:17:33.713Z,5.22
2022-08-17T21:20:12.681Z,5.25
2022-08-17T21:22:53.365Z,5.43
2022-08-17T21:25:32.405Z,5.57
2022-08-17T21:28:20.358Z,5.37
2022-08-17T21:30:59.156Z,4.97
2022-08-17T21:33:31.430Z,4.90
2022-08-17T21:36:00.618Z,5.60
2022-08-17T21:38:35.356Z,5.57
2022-08-17T21:41:01.977Z,5.53
2022-08-17T21:43:35.196Z,5.60
2022-08-17T21:46:06.724Z,5.85
2022-08-17T21:48:43.832Z,5.78
2022-08-17T21:51:19.349Z,5.32
2022-08-17T21:53:52.693Z,5.43
2022-08-17T21:56:26.059Z,5.30
2022-08-17T21:59:19.393Z,5.70
2022-08-17T22:01:57.601Z,6.15
2022-08-17T22:04:41.566Z,6.45
2022-08-17T22:07:11.535Z,6.00
2022-08-17T22:09:46.895Z,5.95
2022-08-17T22:12:22.086Z,6.28
2022-08-17T22:15:01.581Z,6.55
2022-08-17T22:17:29.396Z,5.68
2022-08-17T22:20:00.458Z,5.43
2022-08-17T22:23:08.849Z,6.10
2022-08-17T22:25:38.870Z,6.15
2022-08-17T22:28:08.737Z,8.88
2022-08-17T22:30:58.057Z,8.52
2022-08-17T22:33:43.613Z,5.93
2022-08-17T22:36:26.208Z,6.38
2022-08-17T22:38:55.788Z,6.60
2022-08-17T22:41:57.127Z,6.43
2022-08-17T22:44:30.048Z,6.80
2022-08-17T22:47:00.493Z,7.77
2022-08-17T22:49:34.149Z,8.77
2022-08-17T22:52:11.220Z,9.20
2022-08-17T22:54:56.058Z,9.18
2022-08-17T22:57:42.882Z,9.88
2022-08-17T23:00:31.783Z,9.83
2022-08-17T23:03:28.111Z,10.25
2022-08-17T23:06:10.572Z,9.77
2022-08-17T23:08:49.565Z,10.68
2022-08-17T23:11:16.265Z,10.27
2022-08-17T23:13:42.921Z,9.83
2022-08-17T23:16:09.470Z,9.88
2022-08-17T23:18:36.315Z,10.60
2022-08-17T23:21:03.224Z,10.38
2022-08-17T23:23:29.723Z,10.27
2022-08-17T23:25:56.160Z,10.73
2022-08-17T23:28:22.609Z,11.25
2022-08-17T23:30:49.102Z,11.02
2022-08-17T23:33:26.461Z,11.43
2022-08-17T23:35:53.925Z,11.70
2022-08-17T23:38:20.502Z,12.50
2022-08-17T23:40:46.950Z,10.40
2022-08-17T23:43:23.665Z,9.85
2022-08-17T23:45:53.682Z,10.68
2022-08-17T23:48:35.346Z,11.15
2022-08-17T23:51:04.623Z,12.37
2022-08-17T23:53:34.457Z,10.77
2022-08-17T23:56:06.968Z,10.73
2022-08-17T23:58:38.341Z,11.45
